createdAt,value
2018-11-28T00:00:15.556Z,8.70
2018-11-28T00:02:43.972Z,11.60
2018-11-28T00:05:12.788Z,9.33
2018-11-28T00:07:47.225Z,5.50
2018-11-28T00:10:15.636Z,9.03
2018-11-28T00:12:43.988Z,5.37
2018-11-28T00:15:13.143Z,6.43
2018-11-28T00:17:41.483Z,8.10
2018-11-28T00:20:13.767Z,7.77
2018-11-28T00:22:42.359Z,7.80
2018-11-28T00:25:11.531Z,4.73
2018-11-28T00:27:39.941Z,4.57
2018-11-28T00:30:13.244Z,8.67
2018-11-28T00:32:41.906Z,4.60
2018-11-28T00:35:12.417Z,5.83
2018-11-28T00:37:40.828Z,6.90
2018-11-28T00:40:14.206Z,4.63
2018-11-28T00:42:43.348Z,6.10
2018-11-28T00:45:15.660Z,8.63
2018-11-28T00:47:44.054Z,5.83
2018-11-28T00:50:13.473Z,5.50
2018-11-28T00:52:41.853Z,5.17
2018-11-28T00:55:11.564Z,7.50
2018-11-28T00:57:39.920Z,3.87
2018-11-28T01:00:18.524Z,3.97
2018-11-28T01:02:47.265Z,5.27
2018-11-28T01:05:15.871Z,4.63
2018-11-28T01:07:44.753Z,7.03
2018-11-28T01:10:16.049Z,4.63
2018-11-28T01:12:44.493Z,4.97
2018-11-28T01:15:13.805Z,6.00
2018-11-28T01:17:42.150Z,5.50
2018-11-28T01:20:13.172Z,3.70
2018-11-28T01:22:41.487Z,4.50
2018-11-28T01:25:12.663Z,4.40
2018-11-28T01:27:41.032Z,4.87
2018-11-28T01:30:11.341Z,3.03
2018-11-28T01:32:39.710Z,5.10
2018-11-28T01:35:11.549Z,3.37
2018-11-28T01:37:40.238Z,3.77
2018-11-28T01:40:11.076Z,4.23
2018-11-28T01:42:39.477Z,4.57
2018-11-28T01:45:09.153Z,4.03
2018-11-28T01:47:37.536Z,3.50
2018-11-28T01:50:07.864Z,3.20
2018-11-28T01:52:36.283Z,4.60
2018-11-28T01:55:06.159Z,4.33
2018-11-28T01:57:34.476Z,4.93
2018-11-28T02:00:02.895Z,4.00
2018-11-28T02:02:31.289Z,3.87
2018-11-28T02:04:59.604Z,4.53
2018-11-28T02:07:27.955Z,5.57
2018-11-28T02:09:59.370Z,3.93
2018-11-28T02:12:27.692Z,9.93
2018-11-28T02:14:56.045Z,2.87
2018-11-28T02:17:24.407Z,3.47
2018-11-28T02:19:52.789Z,3.57
2018-11-28T02:22:21.152Z,6.17
2018-11-28T02:24:49.554Z,3.37
2018-11-28T02:27:17.913Z,4.37
2018-11-28T02:29:48.223Z,4.77
2018-11-28T02:32:18.088Z,2.47
2018-11-28T02:34:46.426Z,6.87
2018-11-28T02:37:14.788Z,3.10
2018-11-28T02:39:43.152Z,3.27
2018-11-28T02:42:11.466Z,2.70
2018-11-28T02:44:39.851Z,3.17
2018-11-28T02:47:08.184Z,3.17
2018-11-28T02:49:36.492Z,2.83
2018-11-28T02:52:05.294Z,4.80
2018-11-28T02:54:33.874Z,3.20
2018-11-28T02:57:02.355Z,6.00
2018-11-28T02:59:30.752Z,2.27
2018-11-28T03:01:59.892Z,2.47
2018-11-28T03:04:28.237Z,3.07
2018-11-28T03:06:56.564Z,5.13
2018-11-28T03:09:25.066Z,3.50
2018-11-28T03:11:53.457Z,2.70
2018-11-28T03:14:21.800Z,2.80
2018-11-28T03:16:50.227Z,3.63
2018-11-28T03:19:18.549Z,5.63
2018-11-28T03:21:46.900Z,2.80
2018-11-28T03:24:15.261Z,1.83
2018-11-28T03:26:43.629Z,2.93
2018-11-28T03:29:12.356Z,4.27
2018-11-28T03:31:40.708Z,3.97
2018-11-28T03:34:09.061Z,3.73
2018-11-28T03:36:37.519Z,3.27
2018-11-28T03:39:08.433Z,3.30
2018-11-28T03:41:37.061Z,3.63
2018-11-28T03:44:05.535Z,7.97
2018-11-28T03:46:33.851Z,3.67
2018-11-28T03:49:02.201Z,2.80
2018-11-28T03:51:30.572Z,2.40
2018-11-28T03:53:58.932Z,2.53
2018-11-28T03:56:27.332Z,2.47
2018-11-28T03:58:55.664Z,3.03
2018-11-28T04:01:23.979Z,2.47
2018-11-28T04:03:52.313Z,3.57
2018-11-28T04:06:20.681Z,2.57
2018-11-28T04:08:49.024Z,3.53
2018-11-28T04:11:17.348Z,2.00
2018-11-28T04:13:45.690Z,3.57
2018-11-28T04:16:15.753Z,3.03
2018-11-28T04:18:44.072Z,4.87
2018-11-28T04:21:12.388Z,2.97
2018-11-28T04:23:41.132Z,2.67
2018-11-28T04:26:09.464Z,4.20
2018-11-28T04:28:37.769Z,2.40
2018-11-28T04:31:06.190Z,2.43
2018-11-28T04:33:34.520Z,3.30
2018-11-28T04:36:02.879Z,5.73
2018-11-28T04:38:31.269Z,3.30
2018-11-28T04:40:59.593Z,2.77
2018-11-28T04:43:28.023Z,5.03
2018-11-28T04:45:56.345Z,2.20
2018-11-28T04:48:24.673Z,2.53
2018-11-28T04:50:53.006Z,2.60
2018-11-28T04:53:24.400Z,4.30
2018-11-28T04:55:52.724Z,6.80
2018-11-28T04:58:21.084Z,2.37
2018-11-28T05:00:49.392Z,3.27
2018-11-28T05:03:17.713Z,1.70
2018-11-28T05:05:46.164Z,4.63
2018-11-28T05:08:14.513Z,3.03
2018-11-28T05:10:42.870Z,2.63
2018-11-28T05:13:11.173Z,1.70
2018-11-28T05:15:39.548Z,1.73
2018-11-28T05:18:07.933Z,1.63
2018-11-28T05:20:36.300Z,2.10
2018-11-28T05:23:05.696Z,1.73
2018-11-28T05:25:34.667Z,3.10
2018-11-28T05:28:03.132Z,2.63
2018-11-28T05:30:32.084Z,2.27
2018-11-28T05:33:00.968Z,2.83
2018-11-28T05:35:34.639Z,2.70
2018-11-28T05:38:06.272Z,2.53
2018-11-28T05:40:34.744Z,2.00
2018-11-28T05:43:03.083Z,3.23
2018-11-28T05:45:31.429Z,1.63
2018-11-28T05:48:00.028Z,3.90
2018-11-28T05:50:28.399Z,1.87
2018-11-28T05:52:56.793Z,2.17
2018-11-28T05:55:25.202Z,3.07
2018-11-28T05:57:53.592Z,1.70
2018-11-28T06:00:25.737Z,2.40
2018-11-28T06:02:54.084Z,2.20
2018-11-28T06:05:22.433Z,3.53
2018-11-28T06:07:50.761Z,5.27
2018-11-28T06:10:19.091Z,3.63
2018-11-28T06:12:47.421Z,2.27
2018-11-28T06:15:15.749Z,2.50
2018-11-28T06:17:44.103Z,2.87
2018-11-28T06:20:15.119Z,2.73
2018-11-28T06:22:43.520Z,3.60
2018-11-28T06:25:16.281Z,4.17
2018-11-28T06:27:43.152Z,3.87
2018-11-28T06:30:15.402Z,2.97
2018-11-28T06:32:43.815Z,3.13
2018-11-28T06:35:12.508Z,3.80
2018-11-28T06:37:41.135Z,2.60
2018-11-28T06:40:16.260Z,5.10
2018-11-28T06:42:45.744Z,7.63
2018-11-28T06:45:17.937Z,5.13
2018-11-28T06:47:46.380Z,2.97
2018-11-28T06:50:15.658Z,4.63
2018-11-28T06:52:44.964Z,6.43
2018-11-28T06:55:15.255Z,2.57
2018-11-28T06:57:43.594Z,3.70
2018-11-28T07:00:17.676Z,5.63
2018-11-28T07:02:46.423Z,3.30
2018-11-28T07:05:14.783Z,6.33
2018-11-28T07:07:43.145Z,4.57
2018-11-28T07:10:13.593Z,6.20
2018-11-28T07:12:41.945Z,4.80
2018-11-28T07:15:11.599Z,2.70
2018-11-28T07:17:40.385Z,3.57
2018-11-28T07:20:09.948Z,3.10
2018-11-28T07:22:38.276Z,4.30
2018-11-28T07:25:09.108Z,2.73
2018-11-28T07:27:37.476Z,2.83
2018-11-28T07:30:16.345Z,3.70
2018-11-28T07:32:44.908Z,2.70
2018-11-28T07:35:13.792Z,11.90
2018-11-28T07:37:42.161Z,2.67
2018-11-28T07:40:11.833Z,2.43
2018-11-28T07:42:40.648Z,4.07
2018-11-28T07:45:10.680Z,2.67
2018-11-28T07:47:39.160Z,2.80
2018-11-28T07:50:08.666Z,3.10
2018-11-28T07:52:37.208Z,3.20
2018-11-28T07:55:07.555Z,3.20
2018-11-28T07:57:35.924Z,4.23
2018-11-28T08:00:06.481Z,2.37
2018-11-28T08:02:34.824Z,3.43
2018-11-28T08:05:03.204Z,1.90
2018-11-28T08:07:31.557Z,3.17
2018-11-28T08:09:59.904Z,4.07
2018-11-28T08:12:28.280Z,3.27
2018-11-28T08:14:56.716Z,2.93
2018-11-28T08:17:25.085Z,2.90
2018-11-28T08:19:56.462Z,2.37
2018-11-28T08:22:25.856Z,2.77
2018-11-28T08:24:54.628Z,2.87
2018-11-28T08:27:23.010Z,2.83
2018-11-28T08:29:51.620Z,2.67
2018-11-28T08:32:19.990Z,2.73
2018-11-28T08:34:48.385Z,2.90
2018-11-28T08:37:16.724Z,3.40
2018-11-28T08:39:45.081Z,3.40
2018-11-28T08:42:13.442Z,2.57
2018-11-28T08:44:41.804Z,2.77
2018-11-28T08:47:10.164Z,3.03
2018-11-28T08:49:38.544Z,3.13
2018-11-28T08:52:07.016Z,3.00
2018-11-28T08:54:35.408Z,2.63
2018-11-28T08:57:03.783Z,4.60
2018-11-28T08:59:32.161Z,2.83
2018-11-28T09:02:00.512Z,9.03
2018-11-28T09:04:28.897Z,2.53
2018-11-28T09:06:57.285Z,3.07
2018-11-28T09:09:25.694Z,2.50
2018-11-28T09:11:54.048Z,1.90
2018-11-28T09:14:22.434Z,3.40
2018-11-28T09:16:50.832Z,2.23
2018-11-28T09:19:19.139Z,1.97
2018-11-28T09:21:47.510Z,4.37
2018-11-28T09:24:15.884Z,2.37
2018-11-28T09:26:44.248Z,2.40
2018-11-28T09:29:12.585Z,2.07
2018-11-28T09:31:40.978Z,1.67
2018-11-28T09:34:09.340Z,1.60
2018-11-28T09:36:37.736Z,2.63
2018-11-28T09:39:06.749Z,2.27
2018-11-28T09:41:35.114Z,2.90
2018-11-28T09:44:03.489Z,1.67
2018-11-28T09:46:31.864Z,2.97
2018-11-28T09:49:00.209Z,1.90
2018-11-28T09:51:28.581Z,7.40
2018-11-28T09:53:56.992Z,3.67
2018-11-28T09:56:25.300Z,3.93
2018-11-28T09:58:53.675Z,2.73
2018-11-28T10:01:22.064Z,4.40
2018-11-28T10:03:50.380Z,3.23
2018-11-28T10:06:18.716Z,2.53
2018-11-28T10:08:47.041Z,4.00
2018-11-28T10:11:15.369Z,4.00
2018-11-28T10:13:43.712Z,4.03
2018-11-28T10:16:12.082Z,4.90
2018-11-28T10:18:40.404Z,3.50
2018-11-28T10:21:08.761Z,2.40
2018-11-28T10:23:37.124Z,3.47
2018-11-28T10:26:05.804Z,6.17
2018-11-28T10:28:34.124Z,2.57
2018-11-28T10:31:02.495Z,3.53
2018-11-28T10:33:30.861Z,3.77
2018-11-28T10:35:59.217Z,3.07
2018-11-28T10:38:27.588Z,3.93
2018-11-28T10:40:55.924Z,7.90
2018-11-28T10:43:24.283Z,4.83
2018-11-28T10:45:52.812Z,2.60
2018-11-28T10:48:21.231Z,4.00
2018-11-28T10:50:49.578Z,38.83
2018-11-28T10:53:19.089Z,3.83
2018-11-28T10:55:47.456Z,4.50
2018-11-28T10:58:15.888Z,3.70
2018-11-28T11:00:50.029Z,3.90
2018-11-28T11:03:23.875Z,3.40
2018-11-28T11:05:57.657Z,3.67
2018-11-28T11:08:27.255Z,5.67
2018-11-28T11:11:00.132Z,4.37
2018-11-28T11:13:34.648Z,3.23
2018-11-28T11:16:03.036Z,5.53
2018-11-28T11:18:31.489Z,3.10
2018-11-28T11:20:59.897Z,2.60
2018-11-28T11:23:28.302Z,3.60
2018-11-28T11:25:56.712Z,6.37
2018-11-28T11:28:25.059Z,4.70
2018-11-28T11:30:53.420Z,5.83
2018-11-28T11:33:21.860Z,6.20
2018-11-28T11:35:50.208Z,3.47
2018-11-28T11:38:20.172Z,5.67
2018-11-28T11:40:48.552Z,3.47
2018-11-28T11:43:16.855Z,3.23
2018-11-28T11:45:45.189Z,3.17
2018-11-28T11:48:13.548Z,2.77
2018-11-28T11:50:41.905Z,3.30
2018-11-28T11:53:10.245Z,3.57
2018-11-28T11:55:38.682Z,2.67
2018-11-28T11:58:07.104Z,4.17
2018-11-28T12:00:36.911Z,3.13
2018-11-28T12:03:11.174Z,3.50
2018-11-28T12:05:41.196Z,3.07
2018-11-28T12:08:09.816Z,3.90
2018-11-28T12:10:38.185Z,5.13
2018-11-28T12:13:06.591Z,3.93
2018-11-28T12:15:35.747Z,4.10
2018-11-28T12:18:03.417Z,3.23
2018-11-28T12:20:37.100Z,4.10
2018-11-28T12:23:05.512Z,4.30
2018-11-28T12:25:33.925Z,6.60
2018-11-28T12:28:02.351Z,3.03
2018-11-28T12:30:30.859Z,4.83
2018-11-28T12:32:59.201Z,5.93
2018-11-28T12:35:27.685Z,4.23
2018-11-28T12:37:56.181Z,2.63
2018-11-28T12:40:24.622Z,2.93
2018-11-28T12:42:53.084Z,3.23
2018-11-28T12:45:21.672Z,2.83
2018-11-28T12:47:50.236Z,2.97
2018-11-28T12:50:20.733Z,2.70
2018-11-28T12:52:50.427Z,4.83
2018-11-28T12:55:19.278Z,3.93
2018-11-28T12:57:47.723Z,3.67
2018-11-28T13:00:18.137Z,2.33
2018-11-28T13:02:46.521Z,5.63
2018-11-28T13:05:16.836Z,6.97
2018-11-28T13:07:45.220Z,4.03
2018-11-28T13:10:17.303Z,2.83
2018-11-28T13:12:46.327Z,4.83
2018-11-28T13:15:15.653Z,5.13
2018-11-28T13:17:44.099Z,8.57
2018-11-28T13:20:13.525Z,10.97
2018-11-28T13:22:41.989Z,6.93
2018-11-28T13:25:12.034Z,7.23
2018-11-28T13:27:40.709Z,7.97
2018-11-28T13:30:12.472Z,7.10
2018-11-28T13:32:41.531Z,6.97
2018-11-28T13:35:10.496Z,7.03
2018-11-28T13:37:39.233Z,5.87
2018-11-28T13:40:10.157Z,5.47
2018-11-28T13:42:38.537Z,4.43
2018-11-28T13:45:10.036Z,5.77
2018-11-28T13:47:38.442Z,4.30
2018-11-28T13:50:08.727Z,2.97
2018-11-28T13:52:37.100Z,4.20
2018-11-28T13:56:58.293Z,6.23
2018-11-28T13:58:43.255Z,5.67
2018-11-28T14:01:11.576Z,3.63
2018-11-28T14:03:40.784Z,3.23
2018-11-28T14:06:09.146Z,2.70
2018-11-28T14:08:37.497Z,5.30
2018-11-28T14:11:06.549Z,5.00
2018-11-28T14:13:34.964Z,4.93
2018-11-28T14:16:03.302Z,3.63
2018-11-28T14:18:31.780Z,3.23
2018-11-28T14:21:00.119Z,3.40
2018-11-28T14:23:28.524Z,4.63
2018-11-28T14:25:57.239Z,3.30
2018-11-28T14:28:25.581Z,3.77
2018-11-28T14:30:53.939Z,6.93
2018-11-28T14:33:22.317Z,4.07
2018-11-28T14:35:50.703Z,5.17
2018-11-28T14:38:19.134Z,7.10
2018-11-28T14:40:47.476Z,8.97
2018-11-28T14:43:15.824Z,4.73
2018-11-28T14:45:44.203Z,4.23
2018-11-28T14:48:12.580Z,4.87
2018-11-28T14:50:40.960Z,4.77
2018-11-28T14:53:09.388Z,3.70
2018-11-28T14:55:39.018Z,4.43
2018-11-28T14:58:08.840Z,3.60
2018-11-28T15:00:37.245Z,5.90
2018-11-28T15:03:09.078Z,5.30
2018-11-28T15:05:46.586Z,4.30
2018-11-28T15:08:17.065Z,3.83
2018-11-28T15:10:50.435Z,4.17
2018-11-28T15:13:18.804Z,7.17
2018-11-28T15:15:47.184Z,4.63
2018-11-28T15:18:15.691Z,4.93
2018-11-28T15:20:44.054Z,4.73
2018-11-28T15:23:12.423Z,4.97
2018-11-28T15:25:40.746Z,4.80
2018-11-28T15:28:09.259Z,5.80
2018-11-28T15:30:38.008Z,3.37
2018-11-28T15:33:06.396Z,6.43
2018-11-28T15:35:34.899Z,2.77
2018-11-28T15:38:03.242Z,3.83
2018-11-28T15:40:31.751Z,4.23
2018-11-28T15:43:00.108Z,3.33
2018-11-28T15:45:28.444Z,10.13
2018-11-28T15:47:57.112Z,7.23
2018-11-28T15:50:25.508Z,4.57
2018-11-28T15:52:53.912Z,3.40
2018-11-28T15:55:22.433Z,28.33
2018-11-28T15:57:50.827Z,93.67
2018-11-28T16:00:22.476Z,57.73
2018-11-28T16:02:50.556Z,104.37
2018-11-28T16:05:19.045Z,67.27
2018-11-28T16:07:50.393Z,34.30
2018-11-28T16:10:24.285Z,51.47
2018-11-28T16:12:52.654Z,47.87
2018-11-28T16:15:26.437Z,23.70
2018-11-28T16:17:54.844Z,11.93
2018-11-28T16:20:23.195Z,8.17
2018-11-28T16:22:51.580Z,14.40
2018-11-28T16:25:20.164Z,28.10
2018-11-28T16:27:48.590Z,14.77
2018-11-28T16:30:16.974Z,10.07
2018-11-28T16:32:45.919Z,9.37
2018-11-28T16:35:17.045Z,15.80
2018-11-28T16:37:45.457Z,13.00
2018-11-28T16:40:14.721Z,15.80
2018-11-28T16:42:43.260Z,11.97
2018-11-28T16:45:13.836Z,7.23
2018-11-28T16:47:42.231Z,8.60
2018-11-28T16:50:11.371Z,26.03
2018-11-28T16:52:39.829Z,5.87
2018-11-28T16:55:09.651Z,6.03
2018-11-28T16:57:38.046Z,13.47
2018-11-28T17:00:13.400Z,7.33
2018-11-28T17:02:41.792Z,5.63
2018-11-28T17:05:13.468Z,5.27
2018-11-28T17:07:42.081Z,3.83
2018-11-28T17:10:12.708Z,4.30
2018-11-28T17:12:41.069Z,5.87
2018-11-28T17:15:15.170Z,3.00
2018-11-28T17:17:43.651Z,5.87
2018-11-28T17:20:15.009Z,2.63
2018-11-28T17:22:43.541Z,4.23
2018-11-28T17:25:16.016Z,4.90
2018-11-28T17:27:44.482Z,6.37
2018-11-28T17:30:18.743Z,7.13
2018-11-28T17:32:43.421Z,3.40
2018-11-28T17:35:12.401Z,4.43
2018-11-28T17:37:47.458Z,4.83
2018-11-28T17:40:18.548Z,5.40
2018-11-28T17:42:48.111Z,15.33
2018-11-28T17:45:17.181Z,20.70
2018-11-28T17:47:45.600Z,16.90
2018-11-28T17:50:17.953Z,4.80
2018-11-28T17:53:18.133Z,9.10
2018-11-28T17:55:54.135Z,8.03
2018-11-28T17:58:22.993Z,5.97
2018-11-28T18:00:51.384Z,4.17
2018-11-28T18:03:20.432Z,7.37
2018-11-28T18:05:48.925Z,5.43
2018-11-28T18:08:17.297Z,14.93
2018-11-28T18:10:45.684Z,5.40
2018-11-28T18:13:17.164Z,12.47
2018-11-28T18:15:50.908Z,5.20
2018-11-28T18:18:20.680Z,5.73
2018-11-28T18:20:50.320Z,4.40
2018-11-28T18:23:17.543Z,4.60
2018-11-28T18:25:46.447Z,4.13
2018-11-28T18:28:15.228Z,5.47
2018-11-28T18:30:43.765Z,24.10
2018-11-28T18:33:13.031Z,13.63
2018-11-28T18:35:41.525Z,7.77
2018-11-28T18:38:10.545Z,8.53
2018-11-28T18:40:39.064Z,6.00
2018-11-28T18:43:08.223Z,8.97
2018-11-28T18:45:38.497Z,7.07
2018-11-28T18:48:07.004Z,6.53
2018-11-28T18:50:36.849Z,8.37
2018-11-28T18:53:05.937Z,7.47
2018-11-28T18:55:34.495Z,4.67
2018-11-28T18:58:03.052Z,6.00
2018-11-28T19:00:31.464Z,4.50
2018-11-28T19:02:59.936Z,4.67
2018-11-28T19:05:28.432Z,5.23
2018-11-28T19:07:56.831Z,5.80
2018-11-28T19:10:26.841Z,5.43
2018-11-28T19:12:54.557Z,3.47
2018-11-28T19:15:24.838Z,7.23
2018-11-28T19:17:53.671Z,3.20
2018-11-28T19:20:22.625Z,5.93
2018-11-28T19:22:51.785Z,9.57
2018-11-28T19:25:22.255Z,6.20
2018-11-28T19:27:50.716Z,12.60
2018-11-28T19:30:22.436Z,7.37
2018-11-28T19:32:50.850Z,5.27
2018-11-28T19:35:19.243Z,4.63
2018-11-28T19:37:47.622Z,11.37
2018-11-28T19:40:17.952Z,5.27
2018-11-28T19:42:46.317Z,5.40
2018-11-28T19:45:14.682Z,8.17
2018-11-28T19:47:43.048Z,4.80
2018-11-28T19:50:14.156Z,7.10
2018-11-28T19:52:42.508Z,4.10
2018-11-28T19:55:11.093Z,5.90
2018-11-28T19:57:39.558Z,4.07
2018-11-28T20:00:12.843Z,5.57
2018-11-28T20:02:41.226Z,11.93
2018-11-28T20:05:09.626Z,3.37
2018-11-28T20:07:38.020Z,5.97
2018-11-28T20:10:12.456Z,4.93
2018-11-28T20:12:40.864Z,5.97
2018-11-28T20:15:17.501Z,6.23
2018-11-28T20:17:45.848Z,5.67
2018-11-28T20:20:15.010Z,4.90
2018-11-28T20:22:43.448Z,8.10
2018-11-28T20:25:13.895Z,6.70
2018-11-28T20:27:43.003Z,6.17
2018-11-28T20:30:13.477Z,7.63
2018-11-28T20:32:41.953Z,7.10
2018-11-28T20:35:10.777Z,4.17
2018-11-28T20:37:39.605Z,8.73
2018-11-28T20:40:10.257Z,9.70
2018-11-28T20:42:38.935Z,6.23
2018-11-28T20:45:09.195Z,8.03
2018-11-28T20:47:37.633Z,5.37
2018-11-28T20:50:10.156Z,8.67
2018-11-28T20:52:38.684Z,4.30
2018-11-28T20:55:08.497Z,12.53
2018-11-28T20:57:36.869Z,3.63
2018-11-28T21:00:09.311Z,7.93
2018-11-28T21:02:37.765Z,5.83
2018-11-28T21:05:06.296Z,7.00
2018-11-28T21:07:35.972Z,8.10
2018-11-28T21:10:11.227Z,8.37
2018-11-28T21:12:39.593Z,4.03
2018-11-28T21:15:08.160Z,7.00
2018-11-28T21:17:36.508Z,5.70
2018-11-28T21:20:09.806Z,5.40
2018-11-28T21:22:39.157Z,3.53
2018-11-28T21:25:09.568Z,4.83
2018-11-28T21:27:37.963Z,7.13
2018-11-28T21:30:12.537Z,10.97
2018-11-28T21:35:34.117Z,11.00
2018-11-28T21:38:02.543Z,5.23
2018-11-28T21:40:30.935Z,6.40
2018-11-28T21:42:59.295Z,8.77
2018-11-28T21:45:27.716Z,5.43
2018-11-28T21:47:56.081Z,5.77
2018-11-28T21:50:24.462Z,7.17
2018-11-28T21:52:52.858Z,6.87
2018-11-28T21:55:22.184Z,6.03
2018-11-28T21:57:50.632Z,9.70
2018-11-28T22:00:19.877Z,7.33
2018-11-28T22:02:48.237Z,7.53
2018-11-28T22:05:16.872Z,3.90
2018-11-28T22:07:45.283Z,7.23
2018-11-28T22:10:19.391Z,6.43
2018-11-28T22:12:47.832Z,4.87
2018-11-28T22:15:16.972Z,5.47
2018-11-28T22:17:54.662Z,12.03
2018-11-28T22:20:23.987Z,5.67
2018-11-28T22:22:52.457Z,7.43
2018-11-28T22:25:21.782Z,8.10
2018-11-28T22:27:50.224Z,8.10
2018-11-28T22:30:20.475Z,6.43
2018-11-28T22:32:48.783Z,8.20
2018-11-28T22:35:17.120Z,8.63
2018-11-28T22:37:45.622Z,8.27
2018-11-28T22:40:16.316Z,9.87
2018-11-28T22:42:44.730Z,12.57
2018-11-28T22:45:16.316Z,8.83
2018-11-28T22:47:44.803Z,9.23
2018-11-28T22:50:13.631Z,7.17
2018-11-28T22:52:42.484Z,6.57
2018-11-28T22:55:13.699Z,6.03
2018-11-28T22:57:42.152Z,7.17
2018-11-28T23:00:17.425Z,8.93
2018-11-28T23:02:58.884Z,8.97
2018-11-28T23:05:30.103Z,12.73
2018-11-28T23:07:59.359Z,11.27
2018-11-28T23:10:27.852Z,5.30
2018-11-28T23:12:56.235Z,5.83
2018-11-28T23:15:24.643Z,10.13
2018-11-28T23:17:55.234Z,8.43
2018-11-28T23:20:21.451Z,6.77
2018-11-28T23:22:49.768Z,9.33
2018-11-28T23:25:18.118Z,5.70
2018-11-28T23:27:46.483Z,7.80
2018-11-28T23:30:18.523Z,7.80
2018-11-28T23:32:47.720Z,6.20
2018-11-28T23:35:16.275Z,6.63
2018-11-28T23:37:45.627Z,7.50
2018-11-28T23:40:16.052Z,9.33
2018-11-28T23:42:44.444Z,7.27
2018-11-28T23:45:13.448Z,7.07
2018-11-28T23:47:41.781Z,8.90
2018-11-28T23:50:12.037Z,6.70
2018-11-28T23:52:40.403Z,7.53
2018-11-28T23:55:15.562Z,6.47
2018-11-28T23:57:44.408Z,5.97
